DAL627 KSFO-KLAX
Flight info
| Callsign | DAL627 |
|---|---|
| Flight time | 0h 56m |
| Altitude | 31000 |
| Route | WESLA5 SUSEY EBAYE BURGL IRNMN2 |
| Aircraft | B737/M-SDE2E3FGHIRWXY/LB1 |
Departure
| Time | 2026-04-21 01:15 |
|---|---|
| Airport | San Francisco International Airport (KSFO) |
Arrival
| Time | 2026-04-21 02:11 |
|---|---|
| Airport | Los Angeles International Airport (KLAX) |
| Time | Latitude | Longitude | Altitude | Speed | Heading |
|---|---|---|---|---|---|
| 2026-04-21 01:14 | 37.45100 | -122.42398 | 16298 ft | 344 kts | 139° |
| 2026-04-21 01:15 | 37.43481 | -122.40155 | 17061 ft | 348 kts | 139° |
| 2026-04-21 01:15 | 37.41849 | -122.37886 | 17802 ft | 354 kts | 139° |
| 2026-04-21 01:15 | 37.40174 | -122.35572 | 18468 ft | 360 kts | 139° |
| 2026-04-21 01:15 | 37.38473 | -122.33235 | 19097 ft | 365 kts | 140° |
| 2026-04-21 01:16 | 37.36747 | -122.30872 | 19729 ft | 370 kts | 140° |
| 2026-04-21 01:16 | 37.34992 | -122.28480 | 20350 ft | 375 kts | 140° |
| 2026-04-21 01:16 | 37.33210 | -122.26058 | 20933 ft | 379 kts | 140° |
| 2026-04-21 01:16 | 37.31403 | -122.23607 | 21486 ft | 385 kts | 141° |
| 2026-04-21 01:17 | 37.29567 | -122.21123 | 22036 ft | 391 kts | 141° |
| 2026-04-21 01:17 | 37.27710 | -122.18612 | 22606 ft | 395 kts | 141° |
| 2026-04-21 01:17 | 37.25829 | -122.16070 | 23160 ft | 400 kts | 141° |
| 2026-04-21 01:17 | 37.23925 | -122.13499 | 23667 ft | 404 kts | 141° |
| 2026-04-21 01:18 | 37.21993 | -122.10890 | 24118 ft | 409 kts | 141° |
| 2026-04-21 01:18 | 37.20054 | -122.08274 | 24640 ft | 411 kts | 141° |
| 2026-04-21 01:18 | 37.18105 | -122.05646 | 25179 ft | 413 kts | 141° |
| 2026-04-21 01:18 | 37.16142 | -122.03001 | 25670 ft | 416 kts | 141° |
| 2026-04-21 01:19 | 37.14164 | -122.00340 | 26121 ft | 419 kts | 141° |
| 2026-04-21 01:19 | 37.12168 | -121.97660 | 26582 ft | 422 kts | 141° |
| 2026-04-21 01:19 | 37.10159 | -121.94961 | 27039 ft | 425 kts | 141° |
| 2026-04-21 01:19 | 37.08127 | -121.92236 | 27458 ft | 428 kts | 141° |
| 2026-04-21 01:20 | 37.06088 | -121.89503 | 27847 ft | 431 kts | 141° |
| 2026-04-21 01:20 | 37.04062 | -121.86788 | 28239 ft | 434 kts | 141° |
| 2026-04-21 01:20 | 37.01996 | -121.84024 | 28604 ft | 437 kts | 141° |
| 2026-04-21 01:20 | 36.99924 | -121.81251 | 29105 ft | 436 kts | 141° |
| 2026-04-21 01:21 | 36.97856 | -121.78485 | 29663 ft | 435 kts | 141° |
| 2026-04-21 01:21 | 36.95793 | -121.75727 | 30201 ft | 434 kts | 141° |
| 2026-04-21 01:21 | 36.93699 | -121.72933 | 30661 ft | 434 kts | 141° |
| 2026-04-21 01:21 | 36.91663 | -121.70220 | 30946 ft | 434 kts | 141° |
| 2026-04-21 01:22 | 36.87488 | -121.64666 | 30949 ft | 435 kts | 141° |
| 2026-04-21 01:22 | 36.83380 | -121.59208 | 30957 ft | 434 kts | 140° |
| 2026-04-21 01:23 | 36.79245 | -121.53724 | 30928 ft | 434 kts | 140° |
| 2026-04-21 01:23 | 36.75102 | -121.48241 | 30928 ft | 435 kts | 140° |
| 2026-04-21 01:24 | 36.70951 | -121.42754 | 30927 ft | 435 kts | 140° |
| 2026-04-21 01:24 | 36.66778 | -121.37248 | 30928 ft | 437 kts | 140° |
| 2026-04-21 01:25 | 36.62598 | -121.31741 | 30944 ft | 438 kts | 140° |
| 2026-04-21 01:25 | 36.58405 | -121.26227 | 30945 ft | 439 kts | 140° |
| 2026-04-21 01:26 | 36.54210 | -121.20718 | 30955 ft | 441 kts | 140° |
| 2026-04-21 01:26 | 36.49988 | -121.15184 | 30954 ft | 442 kts | 140° |
| 2026-04-21 01:27 | 36.45743 | -121.09626 | 30959 ft | 443 kts | 140° |
| 2026-04-21 01:27 | 36.41534 | -121.04056 | 30963 ft | 445 kts | 138° |
| 2026-04-21 01:28 | 36.37471 | -120.98211 | 30973 ft | 447 kts | 137° |
| 2026-04-21 01:28 | 36.34094 | -120.93273 | 30979 ft | 448 kts | 137° |
| 2026-04-21 01:29 | 36.30062 | -120.87433 | 30991 ft | 449 kts | 137° |
| 2026-04-21 01:29 | 36.25946 | -120.81526 | 30977 ft | 450 kts | 137° |
| 2026-04-21 01:30 | 36.21872 | -120.75702 | 30988 ft | 450 kts | 137° |
| 2026-04-21 01:30 | 36.17769 | -120.69846 | 30981 ft | 450 kts | 137° |
| 2026-04-21 01:31 | 36.13671 | -120.64007 | 30990 ft | 449 kts | 137° |
| 2026-04-21 01:31 | 36.09579 | -120.58186 | 30990 ft | 448 kts | 137° |
| 2026-04-21 01:32 | 36.05485 | -120.52373 | 30984 ft | 448 kts | 137° |
| 2026-04-21 01:32 | 36.01385 | -120.46561 | 30984 ft | 449 kts | 137° |
| 2026-04-21 01:33 | 35.97274 | -120.40742 | 30985 ft | 450 kts | 137° |
| 2026-04-21 01:33 | 35.93150 | -120.34916 | 30991 ft | 451 kts | 137° |
| 2026-04-21 01:34 | 35.89016 | -120.29083 | 30983 ft | 452 kts | 137° |
| 2026-04-21 01:34 | 35.84387 | -120.24035 | 30980 ft | 439 kts | 154° |
| 2026-04-21 01:35 | 35.79171 | -120.20175 | 30978 ft | 438 kts | 155° |
| 2026-04-21 01:35 | 35.73951 | -120.16315 | 30976 ft | 438 kts | 154° |
| 2026-04-21 01:36 | 35.68742 | -120.12392 | 30976 ft | 439 kts | 154° |
| 2026-04-21 01:36 | 35.63532 | -120.08461 | 30976 ft | 439 kts | 154° |
| 2026-04-21 01:37 | 35.58316 | -120.04526 | 30972 ft | 440 kts | 154° |
| 2026-04-21 01:37 | 35.53106 | -120.00600 | 30984 ft | 440 kts | 154° |
| 2026-04-21 01:38 | 35.47890 | -119.96676 | 30969 ft | 441 kts | 154° |
| 2026-04-21 01:38 | 35.42655 | -119.92743 | 30963 ft | 441 kts | 154° |
| 2026-04-21 01:39 | 35.37415 | -119.88811 | 30964 ft | 441 kts | 154° |
| 2026-04-21 01:39 | 35.32176 | -119.84887 | 30959 ft | 442 kts | 154° |
| 2026-04-21 01:40 | 35.26973 | -119.80838 | 30950 ft | 445 kts | 150° |
| 2026-04-21 01:40 | 35.22042 | -119.76219 | 30947 ft | 448 kts | 147° |
| 2026-04-21 01:41 | 35.17153 | -119.71509 | 30936 ft | 447 kts | 148° |
| 2026-04-21 01:41 | 35.12225 | -119.66860 | 30938 ft | 447 kts | 148° |
| 2026-04-21 01:42 | 35.07285 | -119.62259 | 30775 ft | 448 kts | 148° |
| 2026-04-21 01:42 | 35.04787 | -119.59941 | 29964 ft | 452 kts | 148° |
| 2026-04-21 01:42 | 35.02295 | -119.57626 | 29255 ft | 448 kts | 148° |
| 2026-04-21 01:43 | 34.99834 | -119.55336 | 29125 ft | 439 kts | 148° |
| 2026-04-21 01:43 | 34.97450 | -119.53117 | 28970 ft | 424 kts | 148° |
| 2026-04-21 01:43 | 34.95150 | -119.50979 | 28940 ft | 405 kts | 149° |
| 2026-04-21 01:43 | 34.92955 | -119.48942 | 28926 ft | 388 kts | 149° |
| 2026-04-21 01:44 | 34.90850 | -119.46998 | 28943 ft | 373 kts | 150° |
| 2026-04-21 01:44 | 34.88792 | -119.45142 | 28950 ft | 368 kts | 150° |
| 2026-04-21 01:44 | 34.86688 | -119.43278 | 28967 ft | 382 kts | 150° |
| 2026-04-21 01:44 | 34.84495 | -119.41338 | 28989 ft | 396 kts | 150° |
| 2026-04-21 01:45 | 34.82233 | -119.39327 | 28988 ft | 409 kts | 150° |
| 2026-04-21 01:45 | 34.79904 | -119.37245 | 28995 ft | 421 kts | 149° |
| 2026-04-21 01:45 | 34.77514 | -119.35107 | 28991 ft | 432 kts | 149° |
| 2026-04-21 01:45 | 34.75067 | -119.32921 | 28993 ft | 441 kts | 149° |
| 2026-04-21 01:46 | 34.70009 | -119.28479 | 29001 ft | 453 kts | 149° |
| 2026-04-21 01:46 | 34.64897 | -119.24021 | 29003 ft | 451 kts | 149° |
| 2026-04-21 01:47 | 34.59770 | -119.19596 | 29018 ft | 452 kts | 150° |
| 2026-04-21 01:47 | 34.57232 | -119.17410 | 28852 ft | 442 kts | 150° |
| 2026-04-21 01:47 | 34.54754 | -119.15257 | 28178 ft | 437 kts | 149° |
| 2026-04-21 01:48 | 34.52345 | -119.13124 | 27742 ft | 427 kts | 149° |
| 2026-04-21 01:48 | 34.49974 | -119.11007 | 27567 ft | 411 kts | 149° |
| 2026-04-21 01:48 | 34.47684 | -119.08972 | 27000 ft | 406 kts | 149° |
| 2026-04-21 01:48 | 34.45407 | -119.06960 | 26371 ft | 404 kts | 149° |
| 2026-04-21 01:49 | 34.43141 | -119.04968 | 25786 ft | 401 kts | 149° |
| 2026-04-21 01:49 | 34.40878 | -119.03007 | 25273 ft | 396 kts | 149° |
| 2026-04-21 01:49 | 34.38651 | -119.01083 | 24789 ft | 391 kts | 149° |
| 2026-04-21 01:49 | 34.36450 | -118.99182 | 24271 ft | 387 kts | 149° |
| 2026-04-21 01:50 | 34.34272 | -118.97299 | 23745 ft | 383 kts | 149° |
| 2026-04-21 01:50 | 34.32124 | -118.95382 | 23164 ft | 380 kts | 148° |
| 2026-04-21 01:50 | 34.30034 | -118.93471 | 22561 ft | 377 kts | 148° |
| 2026-04-21 01:50 | 34.27946 | -118.91563 | 21951 ft | 374 kts | 148° |
| 2026-04-21 01:51 | 34.25881 | -118.89686 | 21375 ft | 371 kts | 148° |
| 2026-04-21 01:51 | 34.23824 | -118.87807 | 20813 ft | 367 kts | 148° |
| 2026-04-21 01:51 | 34.21908 | -118.86044 | 20284 ft | 365 kts | 148° |
| 2026-04-21 01:51 | 34.19852 | -118.84152 | 19755 ft | 361 kts | 148° |
| 2026-04-21 01:52 | 34.17889 | -118.82346 | 19598 ft | 347 kts | 148° |
| 2026-04-21 01:52 | 34.14302 | -118.78790 | 19353 ft | 324 kts | 144° |
| 2026-04-21 01:52 | 34.12658 | -118.76966 | 19045 ft | 320 kts | 143° |
| 2026-04-21 01:53 | 34.11015 | -118.75140 | 18578 ft | 321 kts | 144° |
| 2026-04-21 01:53 | 34.09370 | -118.73330 | 18169 ft | 319 kts | 144° |
| 2026-04-21 01:53 | 34.07752 | -118.71563 | 17746 ft | 316 kts | 144° |
| 2026-04-21 01:53 | 34.06123 | -118.69793 | 17246 ft | 314 kts | 144° |
| 2026-04-21 01:54 | 34.04504 | -118.68031 | 16803 ft | 313 kts | 142° |
| 2026-04-21 01:54 | 34.03213 | -118.65890 | 16501 ft | 320 kts | 121° |
| 2026-04-21 01:54 | 34.02607 | -118.63321 | 16314 ft | 320 kts | 103° |
| 2026-04-21 01:54 | 34.02360 | -118.60663 | 15967 ft | 319 kts | 101° |
| 2026-04-21 01:55 | 34.02138 | -118.57963 | 15546 ft | 319 kts | 101° |
| 2026-04-21 01:55 | 34.01909 | -118.55313 | 15179 ft | 317 kts | 101° |
| 2026-04-21 01:55 | 34.01678 | -118.52724 | 14840 ft | 314 kts | 102° |
| 2026-04-21 01:55 | 34.01438 | -118.50132 | 14678 ft | 305 kts | 102° |
| 2026-04-21 01:56 | 34.01205 | -118.47637 | 14609 ft | 294 kts | 102° |
| 2026-04-21 01:56 | 34.01076 | -118.45239 | 14469 ft | 284 kts | 89° |
| 2026-04-21 01:56 | 34.01420 | -118.42888 | 13897 ft | 291 kts | 82° |
| 2026-04-21 01:56 | 34.01867 | -118.40489 | 13170 ft | 294 kts | 81° |
| 2026-04-21 01:57 | 34.02309 | -118.38083 | 12379 ft | 295 kts | 82° |
| 2026-04-21 01:57 | 34.02736 | -118.35664 | 11611 ft | 294 kts | 83° |
| 2026-04-21 01:57 | 34.03039 | -118.33248 | 10847 ft | 290 kts | 87° |
| 2026-04-21 01:57 | 34.03271 | -118.30843 | 10125 ft | 288 kts | 88° |
| 2026-04-21 01:58 | 34.03464 | -118.28454 | 9346 ft | 284 kts | 89° |
| 2026-04-21 01:58 | 34.03608 | -118.26093 | 8563 ft | 281 kts | 90° |
| 2026-04-21 01:58 | 34.03739 | -118.23750 | 7793 ft | 279 kts | 89° |
| 2026-04-21 01:58 | 34.03882 | -118.21421 | 7035 ft | 277 kts | 88° |
| 2026-04-21 01:59 | 34.04040 | -118.19129 | 6282 ft | 273 kts | 87° |
| 2026-04-21 01:59 | 34.04213 | -118.16826 | 5514 ft | 270 kts | 87° |
| 2026-04-21 01:59 | 34.04404 | -118.14605 | 4767 ft | 269 kts | 84° |
| 2026-04-21 01:59 | 34.04673 | -118.12421 | 4343 ft | 254 kts | 82° |
| 2026-04-21 02:00 | 34.04930 | -118.10416 | 4189 ft | 230 kts | 83° |
| 2026-04-21 02:00 | 34.05131 | -118.08599 | 4051 ft | 209 kts | 84° |
| 2026-04-21 02:00 | 34.05295 | -118.06929 | 4003 ft | 196 kts | 85° |
| 2026-04-21 02:00 | 34.05437 | -118.05311 | 4006 ft | 194 kts | 85° |
| 2026-04-21 02:01 | 34.05596 | -118.03696 | 3995 ft | 194 kts | 85° |
| 2026-04-21 02:01 | 34.05738 | -118.02081 | 4010 ft | 194 kts | 86° |
| 2026-04-21 02:01 | 34.05878 | -118.00455 | 4008 ft | 196 kts | 84° |
| 2026-04-21 02:01 | 34.06005 | -117.98821 | 3997 ft | 196 kts | 94° |
| 2026-04-21 02:02 | 34.05461 | -117.97379 | 4001 ft | 192 kts | 141° |
| 2026-04-21 02:02 | 34.04245 | -117.96898 | 4000 ft | 188 kts | 188° |
| 2026-04-21 02:02 | 34.03152 | -117.97660 | 4011 ft | 187 kts | 234° |
| 2026-04-21 02:02 | 34.02483 | -117.99006 | 4018 ft | 188 kts | 239° |
| 2026-04-21 02:03 | 34.01825 | -118.00378 | 4001 ft | 190 kts | 239° |
| 2026-04-21 02:03 | 34.01164 | -118.01765 | 4012 ft | 193 kts | 239° |
| 2026-04-21 02:03 | 34.00496 | -118.03170 | 4005 ft | 193 kts | 239° |
| 2026-04-21 02:03 | 33.99835 | -118.04559 | 3983 ft | 189 kts | 239° |
| 2026-04-21 02:04 | 33.99186 | -118.05924 | 3998 ft | 188 kts | 239° |
| 2026-04-21 02:04 | 33.98649 | -118.07359 | 3986 ft | 191 kts | 257° |
| 2026-04-21 02:04 | 33.98450 | -118.08937 | 4002 ft | 191 kts | 260° |
| 2026-04-21 02:04 | 33.98267 | -118.10524 | 3998 ft | 192 kts | 262° |
| 2026-04-21 02:05 | 33.98107 | -118.12121 | 3999 ft | 192 kts | 262° |
| 2026-04-21 02:05 | 33.97945 | -118.13714 | 4002 ft | 192 kts | 262° |
| 2026-04-21 02:05 | 33.97781 | -118.15306 | 3995 ft | 191 kts | 262° |
| 2026-04-21 02:05 | 33.97615 | -118.16902 | 3910 ft | 193 kts | 262° |
| 2026-04-21 02:06 | 33.97449 | -118.18494 | 3656 ft | 189 kts | 262° |
| 2026-04-21 02:06 | 33.97288 | -118.20037 | 3416 ft | 183 kts | 262° |
| 2026-04-21 02:06 | 33.97133 | -118.21536 | 3183 ft | 178 kts | 262° |
| 2026-04-21 02:06 | 33.96982 | -118.22986 | 2954 ft | 176 kts | 262° |
| 2026-04-21 02:07 | 33.96832 | -118.24439 | 2728 ft | 174 kts | 262° |
| 2026-04-21 02:07 | 33.96682 | -118.25884 | 2508 ft | 173 kts | 263° |
| 2026-04-21 02:07 | 33.96536 | -118.27296 | 2259 ft | 167 kts | 263° |
| 2026-04-21 02:07 | 33.96396 | -118.28649 | 2037 ft | 159 kts | 262° |
| 2026-04-21 02:08 | 33.96264 | -118.29925 | 1828 ft | 146 kts | 262° |
| 2026-04-21 02:08 | 33.96147 | -118.31070 | 1637 ft | 133 kts | 262° |
| 2026-04-21 02:08 | 33.96037 | -118.32134 | 1475 ft | 126 kts | 263° |
| 2026-04-21 02:08 | 33.95929 | -118.33189 | 1365 ft | 127 kts | 262° |
| 2026-04-21 02:09 | 33.95819 | -118.34259 | 1111 ft | 130 kts | 263° |
| 2026-04-21 02:09 | 33.95711 | -118.35302 | 976 ft | 125 kts | 264° |
| 2026-04-21 02:09 | 33.95600 | -118.36327 | 821 ft | 123 kts | 261° |
| 2026-04-21 02:09 | 33.95502 | -118.37356 | 645 ft | 125 kts | 263° |
| 2026-04-21 02:10 | 33.95392 | -118.38440 | 416 ft | 130 kts | 261° |
| 2026-04-21 02:10 | 33.95288 | -118.39492 | 268 ft | 127 kts | 260° |
| 2026-04-21 02:10 | 33.95178 | -118.40527 | 112 ft | 120 kts | 261° |
| 2026-04-21 02:10 | 33.95087 | -118.41406 | 106 ft | 86 kts | 263° |
| 2026-04-21 02:11 | 33.95032 | -118.41927 | 107 ft | 39 kts | 262° |
| 2026-04-21 02:11 | 33.94958 | -118.42169 | 105 ft | 24 kts | 229° |
| 2026-04-21 02:11 | 33.94843 | -118.42271 | 105 ft | 14 kts | 192° |
| 2026-04-21 02:11 | 33.94744 | -118.42281 | 103 ft | 14 kts | 179° |
| 2026-04-21 02:12 | 33.94690 | -118.42235 | 98 ft | 16 kts | 111° |
| 2026-04-21 02:12 | 33.94696 | -118.42108 | 97 ft | 15 kts | 82° |
| 2026-04-21 02:12 | 33.94708 | -118.41987 | 97 ft | 14 kts | 82° |
| 2026-04-21 02:12 | 33.94721 | -118.41857 | 97 ft | 20 kts | 83° |
| 2026-04-21 02:13 | 33.94738 | -118.41687 | 97 ft | 20 kts | 82° |
| 2026-04-21 02:13 | 33.94755 | -118.41521 | 98 ft | 20 kts | 83° |
| 2026-04-21 02:13 | 33.94783 | -118.41363 | 99 ft | 19 kts | 73° |
| 2026-04-21 02:13 | 33.94800 | -118.41208 | 99 ft | 18 kts | 84° |
| 2026-04-21 02:14 | 33.94817 | -118.41058 | 100 ft | 18 kts | 83° |
| 2026-04-21 02:14 | 33.94831 | -118.40912 | 99 ft | 17 kts | 82° |
| 2026-04-21 02:14 | 33.94846 | -118.40773 | 99 ft | 17 kts | 84° |
| 2026-04-21 02:14 | 33.94856 | -118.40638 | 99 ft | 16 kts | 104° |
| 2026-04-21 02:15 | 33.94770 | -118.40556 | 98 ft | 16 kts | 134° |
| 2026-04-21 02:15 | 33.94730 | -118.40503 | 94 ft | 4 kts | 133° |
| 2026-04-21 02:15 | 33.94714 | -118.40482 | 94 ft | 3 kts | 132° |
| 2026-04-21 02:15 | 33.94713 | -118.40480 | 94 ft | 0 kts | 132° |